Time;durP1;ratioP1;P1;durP2;ratioP2;P2;SDS_P1;SDS_P2;PMS_P1;PMS_P2;Temp;Humidity;BMP_temperature;BMP_pressure;BME280_temperature;BME280_humidity;BME280_pressure;Samples;Min_cycle;Max_cycle;Signal;HPM_P1;HPM_P2
2022/09/26 00:01:49;;;;;;;4.97;1.77;;;;;;;8.09;64.88;93454.81;5069550;28;20059;-35
2022/09/26 00:04:21;;;;;;;0.52;0.52;;;;;;;8.13;64.50;93447.72;5069231;28;20025;-35
2022/09/26 00:06:47;;;;;;;2.10;2.00;;;;;;;8.09;64.99;93444.53;5068880;28;20028;-35
2022/09/26 00:09:13;;;;;;;6.22;1.67;;;;;;;7.89;66.26;93438.97;5068769;28;20031;-35
2022/09/26 00:11:39;;;;;;;2.20;2.10;;;;;;;7.95;65.89;93429.34;5068083;28;20416;-35
2022/09/26 00:14:08;;;;;;;0.95;0.95;;;;;;;7.99;64.93;93421.50;5069111;28;20027;-35
2022/09/26 00:16:33;;;;;;;1.88;1.75;;;;;;;7.87;65.78;93442.25;5069230;28;20032;-35
2022/09/26 00:18:59;;;;;;;0.75;0.75;;;;;;;7.82;66.45;93436.91;5069026;28;20039;-35
2022/09/26 00:21:26;;;;;;;1.30;1.23;;;;;;;7.68;65.94;93443.66;5068790;28;20104;-35
2022/09/26 00:23:52;;;;;;;3.42;1.85;;;;;;;7.84;65.11;93442.59;5069114;28;20040;-35
2022/09/26 00:26:19;;;;;;;0.60;0.60;;;;;;;7.84;65.31;93431.59;5073808;28;20044;-35
2022/09/26 00:28:46;;;;;;;1.38;1.27;;;;;;;7.76;65.27;93431.50;5089421;28;20028;-35
2022/09/26 00:31:14;;;;;;;3.00;1.40;;;;;;;7.61;66.05;93437.53;5089054;28;20499;-35
2022/09/26 00:33:40;;;;;;;2.63;1.38;;;;;;;7.76;65.77;93425.25;5086624;28;20032;-35
2022/09/26 00:36:06;;;;;;;1.52;1.48;;;;;;;7.68;66.12;93429.91;5071332;28;20035;-35
2022/09/26 00:38:32;;;;;;;2.25;0.93;;;;;;;7.58;66.12;93413.13;5089305;28;20031;-35
2022/09/26 00:40:57;;;;;;;0.55;0.55;;;;;;;7.67;65.78;93415.44;5089309;28;20028;-35
2022/09/26 00:43:33;;;;;;;5.32;2.00;;;;;;;7.76;65.38;93417.00;5089626;28;20066;-35
2022/09/26 00:46:23;;;;;;;0.43;0.43;;;;;;;7.70;65.24;93425.38;5089363;28;20028;-35
2022/09/26 00:49:14;;;;;;;1.02;1.02;;;;;;;7.68;65.08;93438.16;5087561;28;20052;-35
2022/09/26 00:51:42;;;;;;;1.38;1.27;;;;;;;7.51;65.48;93444.00;5075586;28;20067;-35
2022/09/26 00:54:10;;;;;;;0.65;0.65;;;;;;;7.57;65.72;93431.63;5092627;28;20092;-35
2022/09/26 00:56:37;;;;;;;2.13;1.95;;;;;;;7.56;66.34;93424.66;5092872;28;20110;-35
2022/09/26 00:59:07;;;;;;;1.27;1.27;;;;;;;7.54;67.03;93424.44;5093117;28;20088;-35
2022/09/26 01:01:33;;;;;;;0.73;0.73;;;;;;;7.40;67.64;93422.97;5092444;28;20066;-35
2022/09/26 01:03:59;;;;;;;1.38;1.35;;;;;;;7.52;67.21;93420.75;5074605;28;20052;-35
2022/09/26 01:06:24;;;;;;;0.50;0.50;;;;;;;7.56;66.87;93410.91;5074130;28;20132;-35
2022/09/26 01:08:56;;;;;;;1.05;1.05;;;;;;;7.52;67.26;93407.75;5074607;28;20015;-35
2022/09/26 01:11:22;;;;;;;0.68;0.68;;;;;;;7.53;67.69;93411.25;5074149;28;20149;-35
2022/09/26 01:13:48;;;;;;;0.68;0.68;;;;;;;7.55;67.20;93417.69;5092191;28;20482;-35
2022/09/26 01:16:13;;;;;;;1.55;1.50;;;;;;;7.29;67.65;93431.44;5074531;28;20031;-35
2022/09/26 01:18:39;;;;;;;1.73;1.63;;;;;;;7.50;67.40;93432.25;5092109;28;20028;-35
2022/09/26 01:21:23;;;;;;;0.55;0.55;;;;;;;7.56;67.08;93432.88;5073931;28;20027;-35
2022/09/26 01:24:07;;;;;;;2.47;2.05;;;;;;;7.57;66.74;93428.13;5085374;28;20499;-35
2022/09/26 01:26:57;;;;;;;1.65;1.15;;;;;;;7.69;66.82;93423.88;5091255;28;20047;-35
2022/09/26 01:29:40;;;;;;;0.75;0.75;;;;;;;7.67;65.55;93423.69;5090493;28;20028;-35
2022/09/26 01:32:49;;;;;;;1.67;1.05;;;;;;;7.58;66.39;93413.88;5074070;28;20087;-34
2022/09/26 01:35:36;;;;;;;0.65;0.65;;;;;;;7.59;65.79;93407.13;5089158;28;20603;-35
2022/09/26 01:38:20;;;;;;;1.13;1.10;;;;;;;7.58;66.53;93411.13;5091754;28;20035;-35
2022/09/26 01:41:15;;;;;;;2.88;2.35;;;;;;;7.49;66.51;93402.59;5090941;28;20027;-35
2022/09/26 01:44:17;;;;;;;0.65;0.65;;;;;;;7.51;66.73;93417.25;5088777;28;20024;-35
2022/09/26 01:46:58;;;;;;;1.75;1.65;;;;;;;7.23;67.25;93406.09;5091317;28;20024;-35
2022/09/26 01:49:34;;;;;;;0.57;0.57;;;;;;;7.09;68.50;93407.34;5091459;28;20034;-35
2022/09/26 01:52:26;;;;;;;11.25;1.05;;;;;;;7.10;67.89;93391.59;5073445;28;20053;-35
2022/09/26 01:54:56;;;;;;;0.30;0.30;;;;;;;6.98;68.98;93417.75;5091302;28;20027;-35
2022/09/26 01:57:28;;;;;;;2.55;2.35;;;;;;;6.97;68.99;93408.81;5091493;28;20028;-35
2022/09/26 01:59:56;;;;;;;1.40;1.25;;;;;;;6.94;69.00;93415.34;5073618;28;20420;-35
2022/09/26 02:02:25;;;;;;;2.35;1.02;;;;;;;6.89;69.46;93405.94;5073073;28;20020;-35
2022/09/26 02:04:58;;;;;;;0.88;0.88;;;;;;;7.04;69.27;93393.72;5073161;28;20499;-35
2022/09/26 02:07:48;;;;;;;0.57;0.57;;;;;;;7.10;68.82;93399.84;5091494;28;20020;-35
2022/09/26 02:10:35;;;;;;;0.57;0.57;;;;;;;7.21;68.76;93391.41;5087877;28;20123;-35
2022/09/26 02:13:09;;;;;;;0.40;0.40;;;;;;;7.16;69.50;93387.50;5072694;28;20047;-35
2022/09/26 02:15:36;;;;;;;0.65;0.65;;;;;;;7.30;69.03;93386.22;5056340;28;20032;-35
2022/09/26 02:18:12;;;;;;;0.63;0.63;;;;;;;7.28;68.68;93390.75;5090905;28;20016;-35
2022/09/26 02:20:42;;;;;;;0.30;0.30;;;;;;;7.39;68.17;93383.03;5091425;28;20028;-35
2022/09/26 02:23:07;;;;;;;0.57;0.57;;;;;;;7.41;68.25;93388.00;5066713;28;20042;-35
2022/09/26 02:25:33;;;;;;;0.40;0.40;;;;;;;7.18;69.12;93381.47;5072079;28;20036;-35
2022/09/26 02:27:59;;;;;;;0.40;0.40;;;;;;;7.34;69.27;93403.09;5072468;28;20044;-35
2022/09/26 02:30:24;;;;;;;3.47;3.20;;;;;;;7.41;68.85;93405.22;5091282;28;20445;-35
2022/09/26 02:32:49;;;;;;;2.45;2.08;;;;;;;7.51;68.52;93386.31;5090595;28;20126;-35
2022/09/26 02:37:59;;;;;;;2.22;2.08;;;;;;;7.64;68.54;93373.28;5075328;28;20076;-34
2022/09/26 02:40:32;;;;;;;1.15;1.15;;;;;;;7.76;69.03;93370.28;5091170;28;20020;-35
2022/09/26 02:43:08;;;;;;;1.55;1.45;;;;;;;7.71;69.18;93338.91;5072300;28;20510;-35
2022/09/26 02:45:34;;;;;;;0.30;0.30;;;;;;;7.86;68.77;93365.84;5072266;28;20012;-35
2022/09/26 02:48:38;;;;;;;1.70;1.17;;;;;;;7.87;68.77;93359.81;5090707;28;20473;-35
2022/09/26 02:51:06;;;;;;;0.60;0.60;;;;;;;8.04;68.85;93345.66;5082222;28;20035;-35
2022/09/26 02:54:00;;;;;;;0.73;0.73;;;;;;;8.06;67.68;93345.88;5090216;28;20027;-35
2022/09/26 02:57:00;;;;;;;2.63;1.13;;;;;;;8.02;67.10;93348.22;5072522;28;20093;-35
2022/09/26 02:59:56;;;;;;;0.45;0.45;;;;;;;8.13;66.71;93354.22;5070919;28;20044;-35
2022/09/26 03:02:30;;;;;;;0.90;0.88;;;;;;;7.96;67.68;93351.09;5026447;28;20169;-35
2022/09/26 03:05:08;;;;;;;0.55;0.55;;;;;;;7.81;68.25;93347.44;5068714;28;20157;-35
2022/09/26 03:07:42;;;;;;;1.05;1.05;;;;;;;7.70;68.99;93325.72;5071501;28;20028;-35
2022/09/26 03:10:09;;;;;;;1.80;1.70;;;;;;;7.70;69.07;93347.69;5065804;28;20032;-35
2022/09/26 03:12:35;;;;;;;1.17;0.95;;;;;;;7.82;69.48;93348.94;5072657;28;20450;-35
2022/09/26 03:15:02;;;;;;;1.13;1.13;;;;;;;7.78;69.13;93360.25;5071477;28;20504;-35
2022/09/26 03:17:30;;;;;;;1.13;1.13;;;;;;;7.85;68.65;93359.59;5071915;28;20028;-35
2022/09/26 03:20:09;;;;;;;1.85;1.13;;;;;;;7.81;69.34;93352.94;5089753;28;20031;-35
2022/09/26 03:22:35;;;;;;;0.98;0.98;;;;;;;7.89;69.46;93349.00;5071921;28;20028;-35
2022/09/26 03:25:02;;;;;;;0.90;0.90;;;;;;;7.99;69.21;93341.06;5071931;28;20106;-35
2022/09/26 03:27:27;;;;;;;1.63;1.52;;;;;;;8.03;69.24;93344.22;5071844;28;20071;-35
2022/09/26 03:29:53;;;;;;;1.52;1.42;;;;;;;8.05;69.13;93338.91;5090004;28;20089;-35
2022/09/26 03:32:18;;;;;;;1.33;1.23;;;;;;;8.10;69.08;93335.31;5090205;28;20101;-35
2022/09/26 03:34:43;;;;;;;0.52;0.52;;;;;;;8.11;68.84;93334.00;5089989;28;20020;-35
2022/09/26 03:37:10;;;;;;;1.88;1.75;;;;;;;8.22;68.04;93314.50;5090395;28;20476;-35
2022/09/26 03:39:35;;;;;;;2.58;2.38;;;;;;;8.28;68.56;93318.63;5089938;28;20070;-35
2022/09/26 03:42:01;;;;;;;0.82;0.82;;;;;;;8.25;68.95;93322.44;5089891;28;20029;-35
2022/09/26 03:44:28;;;;;;;1.17;1.15;;;;;;;8.36;68.79;93308.41;5089520;28;20024;-35
2022/09/26 03:46:53;;;;;;;0.77;0.75;;;;;;;8.38;68.52;93305.16;5090141;28;20164;-35
2022/09/26 03:49:19;;;;;;;0.82;0.82;;;;;;;8.21;69.32;93322.00;5089281;28;20462;-35
2022/09/26 03:51:45;;;;;;;1.35;1.35;;;;;;;8.21;69.79;93327.50;5089650;28;20028;-35
2022/09/26 03:54:13;;;;;;;1.95;1.85;;;;;;;8.09;70.10;93320.81;5089772;28;20028;-35
2022/09/26 03:56:39;;;;;;;0.30;0.30;;;;;;;8.19;69.92;93319.06;5089509;28;20052;-35
2022/09/26 03:59:05;;;;;;;0.77;0.77;;;;;;;8.24;70.60;93301.69;5089834;28;20528;-35
2022/09/26 04:01:30;;;;;;;0.88;0.88;;;;;;;8.32;70.05;93310.03;5089881;28;20481;-35
2022/09/26 04:03:56;;;;;;;3.08;1.98;;;;;;;8.29;69.66;93319.38;5089165;28;20035;-35
2022/09/26 04:06:22;;;;;;;1.75;1.40;;;;;;;8.32;69.59;93323.78;5084784;28;20031;-35
2022/09/26 04:08:49;;;;;;;1.08;1.08;;;;;;;8.32;69.19;93324.53;5089786;28;20020;-35
2022/09/26 04:11:18;;;;;;;0.52;0.52;;;;;;;8.33;69.24;93325.28;5071182;28;20027;-35
2022/09/26 04:13:43;;;;;;;1.17;1.17;;;;;;;8.33;69.55;93328.03;5089261;28;20027;-35
2022/09/26 04:16:10;;;;;;;1.60;1.45;;;;;;;8.28;70.28;93324.13;5089350;28;20031;-34
2022/09/26 04:18:36;;;;;;;0.40;0.40;;;;;;;8.26;70.23;93298.44;5089197;28;20020;-35
2022/09/26 04:21:07;;;;;;;1.05;0.95;;;;;;;8.19;70.72;93304.56;5089495;28;20536;-35
2022/09/26 04:23:35;;;;;;;0.47;0.47;;;;;;;8.40;70.94;93310.84;5089261;28;20028;-35
2022/09/26 04:26:08;;;;;;;0.85;0.85;;;;;;;8.42;71.16;93319.31;5090145;28;20153;-35
2022/09/26 04:28:34;;;;;;;0.82;0.82;;;;;;;8.63;69.87;93309.00;5093057;28;20034;-35
2022/09/26 04:31:01;;;;;;;1.13;0.95;;;;;;;8.75;69.44;93306.72;5093164;28;20028;-35
2022/09/26 04:33:27;;;;;;;0.55;0.55;;;;;;;8.81;69.21;93308.03;5093105;28;20116;-35
2022/09/26 04:35:53;;;;;;;0.43;0.43;;;;;;;8.86;69.65;93303.63;5093646;28;20449;-35
2022/09/26 04:38:18;;;;;;;1.88;1.77;;;;;;;8.83;70.37;93304.75;5092749;28;20024;-35
2022/09/26 04:40:44;;;;;;;1.70;1.13;;;;;;;8.88;70.35;93307.34;5092789;28;20492;-35
2022/09/26 04:43:10;;;;;;;2.90;1.17;;;;;;;8.89;70.55;93305.31;5093233;28;20031;-35
2022/09/26 04:45:35;;;;;;;2.60;2.40;;;;;;;9.00;70.35;93311.28;5092864;28;20024;-35
2022/09/26 04:48:01;;;;;;;1.25;1.25;;;;;;;9.08;70.31;93309.28;5093098;28;20053;-35
2022/09/26 04:50:27;;;;;;;0.88;0.88;;;;;;;9.20;69.91;93303.47;5092618;28;20024;-35
2022/09/26 04:52:53;;;;;;;1.20;0.55;;;;;;;9.25;69.92;93310.88;5092794;28;20028;-35
2022/09/26 04:55:19;;;;;;;0.85;0.85;;;;;;;9.13;70.73;93300.16;5092393;28;20502;-35
2022/09/26 04:57:47;;;;;;;1.55;1.45;;;;;;;9.32;71.00;93319.16;5092095;28;20035;-35
2022/09/26 05:00:13;;;;;;;1.65;1.25;;;;;;;9.37;70.94;93323.03;5092586;28;20610;-35
2022/09/26 05:02:38;;;;;;;1.60;1.38;;;;;;;9.47;71.07;93316.47;5092354;28;20024;-35
2022/09/26 05:05:05;;;;;;;1.40;1.30;;;;;;;9.61;70.73;93317.06;5074289;28;20032;-35
2022/09/26 05:07:31;;;;;;;0.63;0.63;;;;;;;9.72;69.96;93308.50;5070909;28;20035;-35
2022/09/26 05:09:56;;;;;;;0.75;0.75;;;;;;;9.83;69.93;93308.88;5091868;28;20016;-35
2022/09/26 05:12:21;;;;;;;0.73;0.73;;;;;;;9.81;69.40;93305.22;5092469;28;20412;-35
2022/09/26 05:14:47;;;;;;;3.10;2.90;;;;;;;9.80;70.15;93303.72;5092110;28;20037;-35
2022/09/26 05:17:14;;;;;;;11.38;3.28;;;;;;;9.76;70.50;93293.06;5092190;28;20063;-35
2022/09/26 05:19:40;;;;;;;3.03;2.83;;;;;;;9.91;70.65;93297.88;5089895;28;20035;-35
2022/09/26 05:22:07;;;;;;;6.93;6.32;;;;;;;9.95;70.04;93287.22;5092237;28;20068;-35
2022/09/26 05:27:17;;;;;;;8.75;7.57;;;;;;;10.19;69.89;93295.00;5091916;28;20085;-35
2022/09/26 05:29:43;;;;;;;5.85;4.68;;;;;;;10.24;69.16;93293.38;5090248;28;20050;-35
2022/09/26 05:32:09;;;;;;;3.60;2.92;;;;;;;10.38;68.69;93297.41;5091825;28;20476;-35
2022/09/26 05:34:34;;;;;;;1.23;0.98;;;;;;;10.51;68.69;93294.47;5092353;28;20040;-35
2022/09/26 05:37:00;;;;;;;1.20;1.20;;;;;;;10.53;68.29;93300.91;5091390;28;20031;-35
2022/09/26 05:42:10;;;;;;;1.73;1.58;;;;;;;10.58;68.14;93291.72;5085429;28;20101;-35
2022/09/26 05:44:36;;;;;;;0.20;0.20;;;;;;;10.69;68.36;93296.13;5092167;28;20048;-35
2022/09/26 05:47:01;;;;;;;0.45;0.45;;;;;;;10.80;68.19;93290.25;5091759;28;20446;-35
2022/09/26 05:49:27;;;;;;;4.72;1.98;;;;;;;10.72;67.98;93274.97;5091583;28;20035;-35
2022/09/26 05:51:53;;;;;;;3.88;3.67;;;;;;;10.89;68.10;93297.22;5091598;28;20035;-35
2022/09/26 05:54:18;;;;;;;9.25;2.35;;;;;;;10.96;68.10;93293.72;5091883;28;20024;-35
2022/09/26 05:56:44;;;;;;;2.70;2.47;;;;;;;10.99;67.49;93287.81;5091359;28;20024;-35
2022/09/26 05:59:09;;;;;;;3.22;3.03;;;;;;;10.94;68.12;93288.00;5091248;28;20032;-35
2022/09/26 06:01:35;;;;;;;4.38;2.42;;;;;;;10.89;68.08;93300.72;5091647;28;20026;-35
2022/09/26 06:04:01;;;;;;;3.22;3.03;;;;;;;10.95;67.82;93300.53;5091232;28;20024;-35
2022/09/26 06:06:28;;;;;;;1.63;1.55;;;;;;;10.99;68.35;93307.16;5091146;28;20674;-35
2022/09/26 06:08:54;;;;;;;2.95;2.75;;;;;;;10.98;68.63;93302.19;5090200;28;20106;-35
2022/09/26 06:11:23;;;;;;;1.17;1.08;;;;;;;11.03;68.64;93301.25;5091073;28;20481;-35
2022/09/26 06:13:49;;;;;;;4.82;1.80;;;;;;;10.97;69.41;93306.97;5091080;28;20019;-35
2022/09/26 06:16:19;;;;;;;2.80;2.63;;;;;;;11.06;69.42;93308.44;5072979;28;20032;-35
2022/09/26 06:18:46;;;;;;;12.18;2.72;;;;;;;11.11;69.94;93299.22;5091420;28;20059;-35
2022/09/26 06:21:13;;;;;;;5.07;4.05;;;;;;;11.19;69.82;93302.69;5090720;28;20511;-35
2022/09/26 06:23:39;;;;;;;2.00;1.58;;;;;;;11.31;69.86;93303.75;5090877;28;20024;-35
2022/09/26 06:26:09;;;;;;;6.18;4.90;;;;;;;11.59;69.98;93297.22;5090976;28;20056;-35
2022/09/26 06:28:35;;;;;;;3.08;2.88;;;;;;;11.81;69.29;93288.13;5073169;28;20035;-35
2022/09/26 06:31:08;;;;;;;4.10;3.78;;;;;;;11.90;67.90;93293.06;5090954;28;20107;-35
2022/09/26 06:33:34;;;;;;;12.68;3.47;;;;;;;12.11;67.31;93297.00;5090676;28;20032;-35
2022/09/26 06:36:01;;;;;;;4.95;4.43;;;;;;;12.37;66.39;93308.81;5091191;28;20039;-35
2022/09/26 06:38:27;;;;;;;8.00;4.28;;;;;;;12.54;66.10;93311.69;5090513;28;20085;-35
2022/09/26 06:40:53;;;;;;;2.90;2.70;;;;;;;12.67;65.53;93303.06;5090907;28;20020;-35
2022/09/26 06:43:19;;;;;;;2.03;1.92;;;;;;;12.79;64.56;93298.53;5084550;28;20023;-35
2022/09/26 06:45:44;;;;;;;2.10;2.00;;;;;;;12.93;64.44;93296.94;5090646;28;20035;-35
2022/09/26 06:48:10;;;;;;;3.70;3.40;;;;;;;13.37;64.39;93292.28;5089621;28;20468;-35
2022/09/26 06:50:36;;;;;;;3.40;2.60;;;;;;;13.74;63.87;93298.72;5090811;28;20031;-35
2022/09/26 06:53:03;;;;;;;4.50;4.13;;;;;;;13.87;62.71;93276.16;5090770;28;20407;-35
2022/09/26 06:55:28;;;;;;;4.07;3.75;;;;;;;14.47;63.19;93282.94;5090483;28;20059;-35
2022/09/26 06:57:54;;;;;;;2.20;1.88;;;;;;;15.95;59.71;93284.25;5090446;28;20066;-33
2022/09/26 07:00:20;;;;;;;4.07;2.45;;;;;;;16.82;54.47;93277.13;5090220;28;20046;-33
2022/09/26 07:02:53;;;;;;;5.10;3.58;;;;;;;16.96;53.94;93271.75;5090646;28;20046;-33
2022/09/26 07:05:19;;;;;;;2.85;2.65;;;;;;;16.80;54.39;93237.97;5085772;28;20020;-33
2022/09/26 07:07:47;;;;;;;14.65;7.53;;;;;;;17.26;54.34;93259.88;5090111;28;20020;-33
2022/09/26 07:10:14;;;;;;;2.90;2.65;;;;;;;17.63;52.00;93258.13;5090126;28;20024;-33
2022/09/26 07:12:42;;;;;;;3.15;2.42;;;;;;;17.86;51.61;93263.84;5090325;28;20036;-33
2022/09/26 07:15:12;;;;;;;1.52;1.48;;;;;;;17.84;51.82;93272.09;5090274;28;20032;-33
2022/09/26 07:17:41;;;;;;;2.40;2.20;;;;;;;17.72;50.68;93271.31;5071901;28;20470;-33
2022/09/26 07:20:15;;;;;;;4.43;3.05;;;;;;;17.99;50.83;93282.84;5089956;28;20107;-33
2022/09/26 07:22:42;;;;;;;3.38;3.08;;;;;;;18.02;49.89;93287.22;5086165;28;20491;-33
2022/09/26 07:25:08;;;;;;;3.15;2.05;;;;;;;18.14;50.05;93278.88;5089978;28;20028;-33
2022/09/26 07:27:33;;;;;;;5.90;3.50;;;;;;;18.40;49.42;93282.59;5089597;28;20075;-33
2022/09/26 07:29:58;;;;;;;2.03;1.92;;;;;;;18.70;47.93;93285.22;5089922;28;20538;-33
2022/09/26 07:32:24;;;;;;;2.00;1.90;;;;;;;19.37;47.26;93283.66;5090065;28;20023;-33
2022/09/26 07:34:51;;;;;;;4.13;3.42;;;;;;;20.75;43.28;93278.84;5089612;28;20044;-33
2022/09/26 07:37:16;;;;;;;1.42;1.33;;;;;;;21.22;42.31;93276.47;5089933;28;20024;-33
2022/09/26 07:39:42;;;;;;;2.58;1.48;;;;;;;21.22;42.80;93291.25;5089476;28;20020;-33
2022/09/26 07:42:08;;;;;;;2.90;1.98;;;;;;;20.95;43.46;93294.72;5089628;28;20077;-33
2022/09/26 07:44:34;;;;;;;1.60;0.90;;;;;;;21.08;42.64;93282.06;5089819;28;20074;-33
2022/09/26 07:52:28;;;;;;;0.50;0.50;;;;;;;21.13;39.38;93272.50;5085443;28;20560;-33
2022/09/26 07:54:54;;;;;;;0.43;0.43;;;;;;;21.23;36.47;93261.06;5071572;28;20028;-33
2022/09/26 07:57:19;;;;;;;0.52;0.52;;;;;;;21.36;37.43;93258.25;5089597;28;20506;-33
2022/09/26 07:59:45;;;;;;;0.17;0.17;;;;;;;21.12;37.37;93257.00;5090517;28;20107;-33
2022/09/26 08:02:33;;;;;;;0.15;0.15;;;;;;;21.20;36.69;93259.53;5093690;28;20101;-33
2022/09/26 08:05:02;;;;;;;0.10;0.10;;;;;;;21.39;37.63;93265.44;5091301;28;20491;-33
2022/09/26 08:07:28;;;;;;;;;;;;;;;22.11;35.24;93259.19;5094339;28;20473;-33
2022/09/26 08:09:53;;;;;;;0.30;0.30;;;;;;;23.25;35.15;93250.47;5094047;28;19911;-33
2022/09/26 08:12:19;;;;;;;0.20;0.20;;;;;;;24.72;32.00;93234.03;5085661;28;20024;-33
2022/09/26 08:14:48;;;;;;;0.28;0.28;;;;;;;25.87;28.59;93251.63;5093605;28;20619;-33
2022/09/26 08:17:16;;;;;;;0.50;0.50;;;;;;;26.76;27.70;93249.66;5093436;28;20032;-33
2022/09/26 08:19:42;;;;;;;0.60;0.52;;;;;;;27.58;26.39;93240.03;5093232;28;20028;-33
2022/09/26 08:22:08;;;;;;;0.20;0.20;;;;;;;27.36;26.22;93228.06;5093418;28;20032;-33
2022/09/26 08:24:33;;;;;;;0.38;0.38;;;;;;;27.89;25.91;93216.03;5093770;28;20107;-33
2022/09/26 08:26:59;;;;;;;0.10;0.10;;;;;;;27.53;24.95;93213.66;5092730;28;20071;-33
2022/09/26 08:29:25;;;;;;;0.40;0.40;;;;;;;27.79;24.91;93222.88;5092921;28;20030;-33
2022/09/26 08:31:50;;;;;;;3.33;0.38;;;;;;;27.86;24.02;93220.94;5093130;28;20020;-33
2022/09/26 08:34:16;;;;;;;1.95;0.43;;;;;;;28.14;24.79;93215.28;5093265;28;20032;-33
2022/09/26 08:36:42;;;;;;;0.40;0.40;;;;;;;28.01;24.30;93207.84;5092982;28;20055;-34
2022/09/26 08:39:08;;;;;;;0.32;0.32;;;;;;;28.48;23.11;93194.13;5093165;28;20035;-34
2022/09/26 08:41:33;;;;;;;0.82;0.40;;;;;;;28.48;23.82;93190.56;5093692;28;20083;-34
2022/09/26 08:44:36;;;;;;;0.20;0.20;;;;;;;28.89;24.17;93178.72;5093011;28;20077;-34
2022/09/26 08:47:28;;;;;;;0.20;0.20;;;;;;;29.81;23.06;93179.91;5093079;28;20071;-34
2022/09/26 08:50:16;;;;;;;0.25;0.25;;;;;;;28.62;22.09;93171.03;5064098;28;20481;-34
2022/09/26 08:52:59;;;;;;;0.52;0.52;;;;;;;27.50;23.48;93178.16;5093131;28;20043;-33
2022/09/26 08:55:29;;;;;;;0.10;0.10;;;;;;;26.08;26.14;93188.69;5086064;28;20414;-33
2022/09/26 08:57:55;;;;;;;0.20;0.20;;;;;;;25.34;27.73;93193.22;5075069;28;20449;-33
2022/09/26 09:00:23;;;;;;;0.90;0.52;;;;;;;25.01;26.21;93185.00;5074689;28;20040;-34
2022/09/26 09:02:48;;;;;;;0.10;0.10;;;;;;;24.65;26.35;93192.06;5092575;28;20035;-33
2022/09/26 09:05:23;;;;;;;1.13;0.57;;;;;;;24.28;26.95;93183.59;5092661;28;20024;-33
2022/09/26 09:07:54;;;;;;;4.75;1.55;;;;;;;23.96;28.43;93178.09;5074169;28;20028;-33
2022/09/26 09:10:45;;;;;;;0.10;0.10;;;;;;;24.14;28.95;93163.28;5073378;28;20046;-33
2022/09/26 09:13:32;;;;;;;0.25;0.25;;;;;;;23.66;28.86;93176.13;5088855;28;20027;-33
2022/09/26 09:16:28;;;;;;;0.28;0.28;;;;;;;23.46;30.29;93161.19;5092464;28;20024;-33
2022/09/26 09:18:59;;;;;;;0.40;0.40;;;;;;;23.18;30.33;93152.97;5092247;28;20071;-33
2022/09/26 09:21:39;;;;;;;0.20;0.20;;;;;;;22.98;30.91;93152.09;5092460;28;20028;-33
2022/09/26 09:24:17;;;;;;;0.10;0.10;;;;;;;22.88;30.92;93143.22;5092398;28;20408;-33
2022/09/26 09:27:02;;;;;;;;;;;;;;;22.90;31.40;93153.84;5092237;28;20087;-33
2022/09/26 09:29:33;;;;;;;0.40;0.40;;;;;;;23.47;30.13;93165.47;5072774;28;19919;-34
2022/09/26 09:32:01;;;;;;;3.10;0.90;;;;;;;25.18;29.27;93166.53;5088285;28;20599;-34
2022/09/26 09:34:28;;;;;;;0.30;0.30;;;;;;;26.70;25.14;93162.38;5073731;28;20044;-34
2022/09/26 09:36:57;;;;;;;0.03;0.03;;;;;;;27.96;25.07;93158.75;5092461;28;20419;-34
2022/09/26 09:39:31;;;;;;;0.10;0.10;;;;;;;28.11;23.66;93154.88;5073787;28;20031;-34
2022/09/26 09:42:01;;;;;;;0.32;0.32;;;;;;;28.18;23.93;93139.44;5091722;28;20070;-33
2022/09/26 09:44:26;;;;;;;0.00;0.00;;;;;;;28.46;23.58;93148.63;5091629;28;20415;-34
2022/09/26 09:46:51;;;;;;;0.10;0.10;;;;;;;27.90;24.04;93147.25;5091584;28;20024;-34
2022/09/26 09:49:22;;;;;;;0.20;0.20;;;;;;;27.39;25.46;93150.19;5091385;28;20028;-34
2022/09/26 09:52:05;;;;;;;0.30;0.10;;;;;;;28.26;25.42;93142.47;5092210;28;20077;-33
2022/09/26 09:54:43;;;;;;;0.10;0.10;;;;;;;29.83;23.53;93140.09;5091614;28;20538;-34
2022/09/26 09:57:33;;;;;;;0.22;0.22;;;;;;;30.48;20.77;93139.06;5091580;28;20024;-34
2022/09/26 10:00:07;;;;;;;0.20;0.20;;;;;;;30.81;21.04;93143.09;5086321;28;20035;-34
2022/09/26 10:03:01;;;;;;;0.10;0.10;;;;;;;31.34;20.87;93130.22;5091468;28;20052;-34
2022/09/26 10:05:41;;;;;;;0.15;0.15;;;;;;;31.58;20.51;93121.97;5065632;28;20020;-33
2022/09/26 10:08:16;;;;;;;0.00;0.00;;;;;;;31.21;19.51;93135.06;5073285;28;20058;-34
2022/09/26 10:11:12;;;;;;;0.10;0.10;;;;;;;31.07;20.43;93128.47;5090569;28;20077;-34
2022/09/26 10:13:38;;;;;;;0.90;0.90;;;;;;;31.35;20.30;93128.81;5091252;28;20450;-34
2022/09/26 10:16:06;;;;;;;0.20;0.20;;;;;;;30.71;21.67;93134.38;5090879;28;20077;-33
2022/09/26 10:18:32;;;;;;;0.13;0.13;;;;;;;30.59;21.05;93129.25;5090731;28;20035;-34
2022/09/26 10:21:10;;;;;;;1.15;0.25;;;;;;;30.92;21.50;93121.88;5091693;28;20031;-34
2022/09/26 10:23:40;;;;;;;0.17;0.17;;;;;;;30.77;21.15;93116.66;5090626;28;20028;-33
2022/09/26 10:26:07;;;;;;;0.45;0.30;;;;;;;31.02;21.44;93126.97;5089931;28;20056;-34
2022/09/26 10:28:45;;;;;;;0.00;0.00;;;;;;;30.60;21.06;93127.81;5090738;28;20036;-33
2022/09/26 10:31:29;;;;;;;0.10;0.10;;;;;;;29.49;21.90;93124.50;5073114;28;20027;-33
2022/09/26 10:33:58;;;;;;;0.05;0.05;;;;;;;28.31;24.58;93117.75;5069364;28;20069;-34
2022/09/26 10:36:29;;;;;;;0.50;0.50;;;;;;;27.61;25.16;93134.47;5091195;28;20050;-33
2022/09/26 10:41:46;;;;;;;0.43;0.30;;;;;;;26.33;26.54;93140.00;5090792;28;20089;-33
2022/09/26 10:44:24;;;;;;;0.28;0.28;;;;;;;25.91;27.17;93133.69;5090476;28;20058;-33
2022/09/26 10:46:51;;;;;;;0.00;0.00;;;;;;;25.51;28.15;93124.59;5084915;28;20093;-33
2022/09/26 10:49:22;;;;;;;0.20;0.20;;;;;;;25.26;28.82;93124.41;5072251;28;20028;-33
2022/09/26 10:51:53;;;;;;;1.98;0.57;;;;;;;25.07;28.97;93119.50;5091093;28;20028;-33
2022/09/26 10:54:21;;;;;;;0.10;0.10;;;;;;;25.43;29.93;93117.94;5072879;28;20411;-33
2022/09/26 10:56:53;;;;;;;0.22;0.22;;;;;;;26.56;27.43;93119.47;5090756;28;20051;-33
2022/09/26 10:59:23;;;;;;;0.50;0.50;;;;;;;27.66;26.32;93110.50;5072499;28;20031;-33
2022/09/26 11:01:50;;;;;;;0.68;0.68;;;;;;;28.41;25.03;93098.09;5090279;28;20024;-34
2022/09/26 11:05:55;;;;;;;0.30;0.30;;;;;;;28.39;24.16;93090.25;5090085;28;20028;-33
2022/09/26 11:07:07;;;;;;;0.10;0.10;;;;;;;28.35;25.35;93093.00;5089672;28;20069;-33
2022/09/26 11:09:34;;;;;;;0.20;0.20;;;;;;;28.62;25.32;93096.44;5090106;28;20474;-33
2022/09/26 11:12:28;;;;;;;0.20;0.20;;;;;;;28.40;25.07;93088.84;5090097;28;20027;-33
2022/09/26 11:14:58;;;;;;;0.15;0.15;;;;;;;28.19;25.07;93080.56;5090143;28;20496;-33
2022/09/26 11:17:51;;;;;;;0.40;0.40;;;;;;;28.49;25.10;93079.13;5088733;28;20062;-33
2022/09/26 11:20:19;;;;;;;0.10;0.10;;;;;;;27.76;25.46;93078.81;5084800;28;20028;-33
2022/09/26 11:22:52;;;;;;;0.20;0.20;;;;;;;27.28;25.90;93061.28;5065522;28;20036;-33
2022/09/26 11:25:26;;;;;;;0.57;0.57;;;;;;;26.68;27.20;93068.81;5071633;28;20445;-33
2022/09/26 11:28:10;;;;;;;0.65;0.38;;;;;;;26.75;27.74;93070.47;5071596;28;20069;-33
2022/09/26 11:30:39;;;;;;;0.10;0.10;;;;;;;26.62;27.76;93076.41;5089339;28;20035;-33
2022/09/26 11:33:10;;;;;;;1.02;0.35;;;;;;;26.72;26.16;93074.63;5085694;28;20090;-33
2022/09/26 11:35:54;;;;;;;0.10;0.10;;;;;;;26.52;26.49;93068.38;5070937;28;20115;-33
2022/09/26 11:38:26;;;;;;;0.10;0.10;;;;;;;26.23;27.12;93072.47;5088467;28;20056;-33
2022/09/26 11:41:35;;;;;;;0.20;0.20;;;;;;;26.17;27.35;93075.13;5089798;28;20020;-33
2022/09/26 11:44:38;;;;;;;0.28;0.28;;;;;;;26.06;27.80;93072.63;5081460;28;20032;-33
2022/09/26 11:47:48;;;;;;;0.45;0.45;;;;;;;25.96;27.59;93069.50;5064644;28;20495;-33
2022/09/26 11:50:26;;;;;;;0.10;0.10;;;;;;;25.63;27.85;93072.66;5078927;28;20035;-33
2022/09/26 11:53:16;;;;;;;0.50;0.50;;;;;;;25.17;28.60;93055.59;5088369;28;20039;-33
2022/09/26 11:55:54;;;;;;;0.20;0.20;;;;;;;24.79;29.57;93045.81;5071766;28;20506;-33
2022/09/26 11:58:32;;;;;;;0.20;0.20;;;;;;;24.75;30.07;93045.69;5089561;28;20032;-33
2022/09/26 12:01:34;;;;;;;0.10;0.10;;;;;;;24.92;30.70;93052.59;5084345;28;20032;-33
2022/09/26 12:04:33;;;;;;;0.10;0.10;;;;;;;25.15;29.94;93046.31;5041401;28;20031;-33
2022/09/26 12:07:20;;;;;;;0.75;0.63;;;;;;;25.22;29.19;93040.22;5089492;28;20054;-34
2022/09/26 12:10:15;;;;;;;0.20;0.20;;;;;;;24.98;29.45;93042.25;5059437;28;20087;-34
2022/09/26 12:13:19;;;;;;;0.05;0.05;;;;;;;24.80;30.30;93036.69;5089498;28;20023;-33
2022/09/26 12:15:50;;;;;;;0.22;0.22;;;;;;;24.75;30.60;93037.22;5046083;28;20040;-33